Time;durP1;ratioP1;P1;durP2;ratioP2;P2;SDS_P1;SDS_P2;PMS_P1;PMS_P2;Temp;Humidity;BMP_temperature;BMP_pressure;BME280_temperature;BME280_humidity;BME280_pressure;Samples;Min_cycle;Max_cycle;Signal;HPM_P1;HPM_P2
2023/12/27 00:02:08;;;;;;;8.82;5.93;;;0.40;98.50;;;;;;5109633;28;20122;-86
2023/12/27 00:04:34;;;;;;;9.23;6.20;;;0.30;98.60;;;;;;5101832;28;20027;-83
2023/12/27 00:07:00;;;;;;;13.25;7.28;;;0.40;98.70;;;;;;5100258;28;20358;-82
2023/12/27 00:09:26;;;;;;;10.40;6.50;;;0.40;98.70;;;;;;5107792;28;20101;-82
2023/12/27 00:11:52;;;;;;;11.23;6.15;;;0.40;98.80;;;;;;5111556;28;20389;-83
2023/12/27 00:14:17;;;;;;;10.27;7.05;;;0.40;98.80;;;;;;5103905;28;20052;-83
2023/12/27 00:16:43;;;;;;;12.15;6.93;;;0.40;98.80;;;;;;5096951;28;20017;-83
2023/12/27 00:19:09;;;;;;;11.45;6.68;;;0.40;98.90;;;;;;5110094;28;20051;-84
2023/12/27 00:21:35;;;;;;;9.63;6.13;;;0.40;99.00;;;;;;5111790;28;20040;-84
2023/12/27 00:24:01;;;;;;;9.05;5.97;;;0.40;99.00;;;;;;5096400;28;20024;-83
2023/12/27 00:26:27;;;;;;;9.57;6.97;;;0.40;99.00;;;;;;5109912;28;20477;-83
2023/12/27 00:28:53;;;;;;;12.60;8.48;;;0.40;99.00;;;;;;5096348;28;20496;-85
2023/12/27 00:31:19;;;;;;;10.57;7.05;;;0.40;99.10;;;;;;5097221;28;20122;-85
2023/12/27 00:33:44;;;;;;;11.32;7.93;;;0.40;99.10;;;;;;5096541;28;20032;-85
2023/12/27 00:36:10;;;;;;;11.27;6.90;;;0.30;99.10;;;;;;5102815;28;20016;-84
2023/12/27 00:38:36;;;;;;;12.02;7.38;;;0.30;99.30;;;;;;5105522;28;20024;-84
2023/12/27 00:41:03;;;;;;;12.45;7.72;;;0.30;99.60;;;;;;5089053;28;20392;-84
2023/12/27 00:43:29;;;;;;;12.93;7.72;;;0.30;99.40;;;;;;5107373;28;20380;-84
2023/12/27 00:45:55;;;;;;;11.10;6.90;;;0.30;99.40;;;;;;5088984;28;20084;-84
2023/12/27 00:48:21;;;;;;;11.40;6.97;;;0.30;99.40;;;;;;5114251;28;20023;-84
2023/12/27 00:50:46;;;;;;;11.07;6.78;;;0.30;99.40;;;;;;5103410;28;20392;-84
2023/12/27 00:53:13;;;;;;;15.35;7.15;;;0.30;99.50;;;;;;5091861;28;20039;-84
2023/12/27 00:55:38;;;;;;;13.02;8.65;;;0.30;99.60;;;;;;5081952;28;20532;-83
2023/12/27 00:58:04;;;;;;;14.75;9.07;;;0.30;99.60;;;;;;5093655;28;20119;-84
2023/12/27 01:00:30;;;;;;;11.48;6.93;;;0.30;99.70;;;;;;5100447;28;20027;-82
2023/12/27 01:02:56;;;;;;;10.73;7.70;;;0.40;99.70;;;;;;5118242;28;20015;-82
2023/12/27 01:05:22;;;;;;;15.63;8.27;;;0.40;99.70;;;;;;5108005;28;20020;-82
2023/12/27 01:07:47;;;;;;;13.35;8.43;;;0.40;99.70;;;;;;5089166;28;20024;-84
2023/12/27 01:10:14;;;;;;;12.13;7.80;;;0.40;99.70;;;;;;5091619;28;21533;-84
2023/12/27 01:12:40;;;;;;;12.07;8.05;;;0.40;99.80;;;;;;5112888;28;20114;-84
2023/12/27 01:15:06;;;;;;;12.77;8.85;;;0.40;99.70;;;;;;5110445;28;20023;-84
2023/12/27 01:17:32;;;;;;;14.23;8.38;;;0.50;99.80;;;;;;5075076;28;20489;-84
2023/12/27 01:19:58;;;;;;;13.98;7.60;;;0.50;99.70;;;;;;5106319;28;20089;-86
2023/12/27 01:22:24;;;;;;;10.13;7.40;;;0.50;99.70;;;;;;5132240;28;20044;-84
2023/12/27 01:24:50;;;;;;;14.60;9.23;;;0.50;99.70;;;;;;5105492;28;20016;-84
2023/12/27 01:27:16;;;;;;;14.27;8.25;;;0.40;99.60;;;;;;5113485;28;20020;-84
2023/12/27 01:29:41;;;;;;;12.23;7.93;;;0.30;99.70;;;;;;5095737;28;20476;-84
2023/12/27 01:32:07;;;;;;;11.15;8.23;;;0.30;99.90;;;;;;5092143;28;20072;-84
2023/12/27 01:34:36;;;;;;;14.27;7.88;;;0.30;99.90;;;;;;5095990;28;20420;-85
2023/12/27 01:37:02;;;;;;;11.18;7.35;;;0.30;99.80;;;;;;5095938;28;20442;-86
2023/12/27 01:39:27;;;;;;;14.30;9.02;;;0.20;99.90;;;;;;5096384;28;20024;-86
2023/12/27 01:41:53;;;;;;;12.07;7.85;;;0.20;99.90;;;;;;5104493;28;20024;-83
2023/12/27 01:44:19;;;;;;;12.93;8.68;;;0.30;99.90;;;;;;5129054;28;20096;-83
2023/12/27 01:46:45;;;;;;;13.60;8.15;;;0.40;99.90;;;;;;5107530;28;20099;-84
2023/12/27 01:49:11;;;;;;;11.80;8.05;;;0.40;99.90;;;;;;5098226;28;20521;-84
2023/12/27 01:51:37;;;;;;;11.57;7.75;;;0.40;99.90;;;;;;5098875;28;20136;-84
2023/12/27 01:54:04;;;;;;;15.63;9.57;;;0.50;99.90;;;;;;5105862;28;20022;-85
2023/12/27 01:56:30;;;;;;;14.32;8.48;;;0.50;99.90;;;;;;5106700;28;20094;-83
2023/12/27 01:58:57;;;;;;;12.65;8.85;;;0.50;99.90;;;;;;5098603;28;20024;-83
2023/12/27 02:01:23;;;;;;;14.73;8.68;;;0.50;99.90;;;;;;5095796;28;20461;-82
2023/12/27 02:03:49;;;;;;;13.60;9.25;;;0.50;99.90;;;;;;5116577;28;20069;-82
2023/12/27 02:06:15;;;;;;;16.48;9.40;;;0.50;99.90;;;;;;5107652;28;20063;-83
2023/12/27 02:08:41;;;;;;;13.50;8.45;;;0.50;99.90;;;;;;5096869;28;20035;-82
2023/12/27 02:11:07;;;;;;;12.60;8.00;;;0.50;99.90;;;;;;5095578;28;20044;-80
2023/12/27 02:13:33;;;;;;;12.82;8.13;;;0.50;99.90;;;;;;5079852;28;20028;-82
2023/12/27 02:15:59;;;;;;;15.13;10.05;;;0.40;99.90;;;;;;5085145;28;20027;-81
2023/12/27 02:18:26;;;;;;;14.15;8.68;;;0.40;99.90;;;;;;5105870;28;20020;-83
2023/12/27 02:20:52;;;;;;;;;;;0.40;99.90;;;;;;5097715;28;20020;-82
2023/12/27 02:23:20;;;;;;;16.88;9.18;;;0.40;99.90;;;;;;5094870;28;19904;-83
2023/12/27 02:25:48;;;;;;;13.32;9.13;;;0.40;99.90;;;;;;5101329;28;20028;-83
2023/12/27 02:28:14;;;;;;;12.45;8.73;;;0.40;99.90;;;;;;5087823;28;20032;-82
2023/12/27 02:30:40;;;;;;;15.23;9.88;;;0.40;99.90;;;;;;5118665;28;20039;-83
2023/12/27 02:33:06;;;;;;;14.65;9.05;;;0.40;99.90;;;;;;5106716;28;20028;-82
2023/12/27 02:35:32;;;;;;;14.60;9.27;;;0.40;99.90;;;;;;5130015;28;20050;-85
2023/12/27 02:37:59;;;;;;;12.35;8.98;;;0.40;99.90;;;;;;5115263;28;20438;-83
2023/12/27 02:40:24;;;;;;;15.57;9.18;;;0.40;99.90;;;;;;5112309;28;20034;-82
2023/12/27 02:42:50;;;;;;;13.13;9.05;;;0.50;99.90;;;;;;5111117;28;20455;-84
2023/12/27 02:45:16;;;;;;;11.40;7.78;;;0.50;99.90;;;;;;5094089;28;20131;-82
2023/12/27 02:47:42;;;;;;;12.90;8.05;;;0.40;99.90;;;;;;5100850;28;20030;-82
2023/12/27 02:50:08;;;;;;;14.43;9.07;;;0.40;99.90;;;;;;5094087;28;20062;-82
2023/12/27 02:52:34;;;;;;;14.75;9.50;;;0.40;99.90;;;;;;5087555;28;20034;-83
2023/12/27 02:55:00;;;;;;;12.23;9.07;;;0.50;99.90;;;;;;5107150;28;20020;-82
2023/12/27 02:57:27;;;;;;;13.10;8.75;;;0.60;99.90;;;;;;5096390;28;20039;-82
2023/12/27 02:59:53;;;;;;;12.98;8.52;;;0.60;99.90;;;;;;5096395;28;20027;-82
2023/12/27 03:02:19;;;;;;;15.02;9.57;;;0.60;99.90;;;;;;5106729;28;20024;-83
2023/12/27 03:04:45;;;;;;;14.60;9.80;;;0.60;99.90;;;;;;5094816;28;20022;-82
2023/12/27 03:07:11;;;;;;;12.85;8.75;;;0.60;99.90;;;;;;5099634;28;20032;-81
2023/12/27 03:09:37;;;;;;;14.73;9.40;;;0.50;99.90;;;;;;5106842;28;20036;-83
2023/12/27 03:12:03;;;;;;;14.25;9.32;;;0.50;99.90;;;;;;5097620;28;20373;-83
2023/12/27 03:14:29;;;;;;;13.80;8.38;;;0.40;99.90;;;;;;5093860;28;20051;-83
2023/12/27 03:16:55;;;;;;;12.60;8.07;;;0.40;99.90;;;;;;5108251;28;20016;-83
2023/12/27 03:19:21;;;;;;;14.23;9.52;;;0.40;99.90;;;;;;5095129;28;20381;-84
2023/12/27 03:21:46;;;;;;;14.18;8.93;;;0.30;99.90;;;;;;5102368;28;20111;-84
2023/12/27 03:24:13;;;;;;;15.93;9.13;;;0.40;99.90;;;;;;5112886;28;20447;-83
2023/12/27 03:26:39;;;;;;;13.25;9.15;;;0.30;99.90;;;;;;5099680;28;20107;-81
2023/12/27 03:29:05;;;;;;;14.73;9.48;;;0.30;99.90;;;;;;5110325;28;20085;-82
2023/12/27 03:31:31;;;;;;;20.10;10.25;;;0.30;99.90;;;;;;5098006;28;20070;-83
2023/12/27 03:33:57;;;;;;;14.68;9.30;;;0.20;99.90;;;;;;5108467;28;20035;-82
2023/12/27 03:36:24;;;;;;;18.58;11.40;;;0.10;99.90;;;;;;5105696;28;20024;-82
2023/12/27 03:38:50;;;;;;;14.52;11.18;;;0.10;99.90;;;;;;5093327;28;20039;-83
2023/12/27 03:41:16;;;;;;;16.75;10.77;;;0.10;99.90;;;;;;5093491;28;20121;-83
2023/12/27 03:43:42;;;;;;;15.52;10.50;;;0.10;99.90;;;;;;5101118;28;20476;-83
2023/12/27 03:46:08;;;;;;;15.43;9.75;;;0.10;99.90;;;;;;5098918;28;20034;-82
2023/12/27 03:48:33;;;;;;;18.90;11.02;;;0.10;99.90;;;;;;5099762;28;20031;-82
2023/12/27 03:50:59;;;;;;;18.45;10.80;;;0.10;99.90;;;;;;5104452;28;20047;-82
2023/12/27 03:53:25;;;;;;;16.25;9.93;;;0.10;99.90;;;;;;5105043;28;20026;-82
2023/12/27 03:55:51;;;;;;;14.93;8.73;;;0.10;99.90;;;;;;5105909;28;20095;-83
2023/12/27 03:58:17;;;;;;;15.27;10.95;;;0.10;99.90;;;;;;5097136;28;20028;-83
2023/12/27 04:00:42;;;;;;;16.48;10.55;;;0.00;99.90;;;;;;5102951;28;20027;-82
2023/12/27 04:03:08;;;;;;;18.20;10.80;;;0.00;99.90;;;;;;5114096;28;20465;-83
2023/12/27 04:05:34;;;;;;;15.73;10.23;;;0.00;99.90;;;;;;5095285;28;20396;-85
2023/12/27 04:08:00;;;;;;;19.08;10.82;;;0.00;99.90;;;;;;5101616;28;20011;-83
2023/12/27 04:10:26;;;;;;;18.33;10.55;;;0.00;99.90;;;;;;5112229;28;20031;-83
2023/12/27 04:12:52;;;;;;;20.80;10.25;;;-0.10;99.90;;;;;;5134827;28;20067;-83
2023/12/27 04:15:17;;;;;;;17.00;10.85;;;-0.10;99.90;;;;;;5117418;28;20059;-84
2023/12/27 04:17:43;;;;;;;20.00;11.50;;;-0.10;99.90;;;;;;5112853;28;20027;-84
2023/12/27 04:20:09;;;;;;;20.30;11.75;;;-0.20;99.90;;;;;;5112792;28;20051;-85
2023/12/27 04:22:35;;;;;;;19.77;10.88;;;-0.20;99.90;;;;;;5100616;28;20464;-84
2023/12/27 04:25:03;;;;;;;21.90;11.48;;;-0.20;99.90;;;;;;5094108;28;20028;-83
2023/12/27 04:27:28;;;;;;;16.38;9.55;;;-0.20;99.90;;;;;;5095169;28;20470;-84
2023/12/27 04:29:54;;;;;;;19.27;10.60;;;-0.20;99.90;;;;;;5113457;28;20081;-85
2023/12/27 04:32:20;;;;;;;19.73;10.90;;;-0.10;99.90;;;;;;5105637;28;20043;-83
2023/12/27 04:34:46;;;;;;;19.10;11.98;;;-0.20;99.90;;;;;;5102463;28;20043;-81
2023/12/27 04:37:12;;;;;;;18.45;9.68;;;-0.10;99.90;;;;;;5107905;28;20032;-82
2023/12/27 04:39:38;;;;;;;18.45;11.20;;;-0.10;99.90;;;;;;5096662;28;20038;-82
2023/12/27 04:42:04;;;;;;;17.05;11.40;;;-0.10;99.90;;;;;;5106742;28;20102;-81
2023/12/27 04:44:30;;;;;;;20.98;12.07;;;0.00;99.90;;;;;;5091051;28;20086;-82
2023/12/27 04:46:56;;;;;;;21.63;11.30;;;0.00;99.90;;;;;;5112740;28;20115;-85
2023/12/27 04:49:22;;;;;;;19.55;11.32;;;0.10;99.90;;;;;;5085298;28;20071;-83
2023/12/27 04:51:48;;;;;;;23.40;12.38;;;0.10;99.90;;;;;;5077219;28;20111;-86
2023/12/27 04:54:14;;;;;;;18.33;11.75;;;0.10;99.90;;;;;;5115740;28;20042;-84
2023/12/27 04:56:39;;;;;;;17.60;10.63;;;0.10;99.90;;;;;;5095469;28;20038;-85
2023/12/27 04:59:05;;;;;;;17.70;11.07;;;0.10;99.90;;;;;;5100663;28;20028;-84
2023/12/27 05:01:31;;;;;;;17.13;10.40;;;0.10;99.90;;;;;;5113751;28;20020;-81
2023/12/27 05:03:57;;;;;;;18.60;11.57;;;0.10;99.90;;;;;;5093000;28;20106;-81
2023/12/27 05:06:22;;;;;;;18.50;10.10;;;0.10;99.90;;;;;;5077906;28;20035;-82
2023/12/27 05:08:48;;;;;;;19.75;10.52;;;0.10;99.90;;;;;;5095892;28;20050;-84
2023/12/27 05:11:18;;;;;;;17.70;10.45;;;0.10;99.90;;;;;;5081615;28;20055;-82
2023/12/27 05:13:44;;;;;;;17.95;10.43;;;0.10;99.90;;;;;;5088978;28;20243;-82
2023/12/27 05:16:12;;;;;;;19.40;10.70;;;0.10;99.90;;;;;;5084588;28;20020;-81
2023/12/27 05:18:40;;;;;;;19.05;9.95;;;0.20;99.90;;;;;;5102518;28;20036;-82
2023/12/27 05:21:07;;;;;;;16.58;9.50;;;0.20;99.90;;;;;;5096576;28;20158;-80
2023/12/27 05:23:33;;;;;;;19.00;10.25;;;0.20;99.90;;;;;;5107318;28;20046;-83
2023/12/27 05:25:58;;;;;;;21.58;11.35;;;0.20;99.90;;;;;;5100408;28;20015;-83
2023/12/27 05:28:24;;;;;;;17.83;10.98;;;0.30;99.90;;;;;;5116118;28;20075;-83
2023/12/27 05:30:50;;;;;;;18.55;10.52;;;0.30;99.90;;;;;;5115729;28;20378;-83
2023/12/27 05:33:16;;;;;;;18.20;10.35;;;0.30;99.90;;;;;;5087849;28;20400;-84
2023/12/27 05:35:42;;;;;;;24.58;12.60;;;0.30;99.90;;;;;;5095529;28;20054;-83
2023/12/27 05:38:08;;;;;;;17.60;9.65;;;0.30;99.90;;;;;;5096115;28;20460;-81
2023/12/27 05:40:33;;;;;;;20.40;12.10;;;0.30;99.90;;;;;;5102841;28;20128;-83
2023/12/27 05:42:59;;;;;;;17.10;11.90;;;0.30;99.90;;;;;;5099862;28;20016;-82
2023/12/27 05:45:25;;;;;;;21.48;11.98;;;0.30;99.90;;;;;;5118490;28;20040;-84
2023/12/27 05:47:52;;;;;;;17.90;11.60;;;0.40;99.90;;;;;;5128792;28;20028;-83
2023/12/27 05:50:18;;;;;;;33.47;14.03;;;0.40;99.90;;;;;;5107919;28;20126;-82
2023/12/27 05:52:44;;;;;;;21.17;13.90;;;0.50;99.90;;;;;;5107561;28;20015;-82
2023/12/27 05:55:10;;;;;;;27.45;16.75;;;0.50;99.90;;;;;;5097889;28;20020;-84
2023/12/27 05:57:36;;;;;;;23.88;13.25;;;0.50;99.90;;;;;;5114664;28;20028;-83
2023/12/27 06:00:02;;;;;;;21.10;12.45;;;0.50;99.90;;;;;;5099227;28;20706;-82
2023/12/27 06:02:28;;;;;;;25.90;13.02;;;0.40;99.90;;;;;;5101765;28;20492;-81
2023/12/27 06:04:55;;;;;;;26.90;15.30;;;0.40;99.90;;;;;;5112836;28;20035;-84
2023/12/27 06:07:21;;;;;;;20.92;14.02;;;0.40;99.90;;;;;;5095075;28;20024;-84
2023/12/27 06:09:47;;;;;;;21.02;12.88;;;0.40;99.90;;;;;;5100330;28;20039;-83
2023/12/27 06:12:13;;;;;;;21.20;13.23;;;0.40;99.90;;;;;;5089735;28;20024;-85
2023/12/27 06:14:39;;;;;;;22.10;13.38;;;0.50;99.90;;;;;;5095158;28;20035;-82
2023/12/27 06:17:05;;;;;;;21.17;13.60;;;0.60;99.90;;;;;;5107990;28;20016;-83
2023/12/27 06:19:37;;;;;;;20.08;12.88;;;0.60;99.90;;;;;;5103308;28;20023;-81
2023/12/27 06:22:03;;;;;;;26.45;13.27;;;0.60;99.90;;;;;;5105077;28;20028;-83
2023/12/27 06:24:38;;;;;;;25.02;14.55;;;0.50;99.90;;;;;;5100908;28;20021;-87
2023/12/27 06:27:06;;;;;;;23.67;14.30;;;0.50;99.90;;;;;;5100402;28;20024;-85
2023/12/27 06:29:33;;;;;;;20.42;12.25;;;0.50;99.90;;;;;;5095171;28;20036;-85
2023/12/27 06:31:59;;;;;;;20.52;12.25;;;0.50;99.90;;;;;;5096187;28;20095;-89
2023/12/27 06:34:25;;;;;;;20.83;13.60;;;0.50;99.90;;;;;;5083482;28;20052;-85
2023/12/27 06:36:51;;;;;;;25.52;12.45;;;0.50;99.90;;;;;;5098674;28;20020;-83
2023/12/27 06:39:17;;;;;;;22.20;12.73;;;0.50;99.90;;;;;;5106066;28;20020;-84
2023/12/27 06:41:43;;;;;;;18.05;11.27;;;0.50;99.90;;;;;;5119203;28;20064;-84
2023/12/27 06:44:09;;;;;;;17.77;11.77;;;0.50;99.90;;;;;;5118172;28;20051;-82
2023/12/27 06:46:35;;;;;;;28.13;12.82;;;0.50;99.90;;;;;;5104781;28;20020;-82
2023/12/27 06:49:01;;;;;;;20.58;11.18;;;0.60;99.90;;;;;;5097451;28;20032;-84
2023/12/27 06:51:27;;;;;;;25.85;13.88;;;0.60;99.90;;;;;;5080987;28;20504;-85
2023/12/27 06:53:53;;;;;;;21.25;13.50;;;0.60;99.90;;;;;;5106565;28;20118;-84
2023/12/27 06:56:19;;;;;;;19.38;11.05;;;0.70;99.90;;;;;;5113790;28;20020;-84
2023/12/27 06:58:44;;;;;;;23.55;14.90;;;0.80;99.90;;;;;;5115098;28;20068;-84
2023/12/27 07:01:11;;;;;;;20.60;12.05;;;0.80;99.90;;;;;;5104158;28;20024;-86
2023/12/27 07:03:37;;;;;;;18.48;12.32;;;0.70;99.90;;;;;;5107309;28;20131;-84
2023/12/27 07:06:03;;;;;;;20.13;14.07;;;0.70;99.90;;;;;;5108448;28;20052;-84
2023/12/27 07:08:31;;;;;;;33.50;18.52;;;0.70;99.90;;;;;;5095216;28;20396;-84
2023/12/27 07:10:56;;;;;;;19.50;10.45;;;0.70;99.90;;;;;;5095493;28;20110;-83
2023/12/27 07:13:22;;;;;;;29.70;19.00;;;0.70;99.90;;;;;;5094187;28;20043;-83
2023/12/27 07:15:48;;;;;;;16.98;10.85;;;0.60;99.90;;;;;;5094774;28;20012;-85
2023/12/27 07:18:14;;;;;;;21.02;15.40;;;0.60;99.90;;;;;;5111583;28;20023;-83
2023/12/27 07:20:40;;;;;;;22.73;15.45;;;0.60;99.90;;;;;;5098658;28;20054;-83
2023/12/27 07:23:05;;;;;;;33.10;28.52;;;0.60;99.90;;;;;;5109434;28;20046;-86
2023/12/27 07:25:31;;;;;;;28.58;12.57;;;0.60;99.90;;;;;;5090516;28;20034;-87
2023/12/27 07:27:57;;;;;;;22.33;10.95;;;0.60;99.90;;;;;;5095038;28;20473;-86
2023/12/27 07:30:23;;;;;;;19.23;12.63;;;0.70;99.90;;;;;;5095431;28;20028;-86
2023/12/27 07:32:49;;;;;;;26.13;15.55;;;0.70;99.90;;;;;;5084062;28;20047;-85
2023/12/27 07:35:15;;;;;;;25.70;15.90;;;0.70;99.90;;;;;;5083120;28;20039;-85
2023/12/27 07:37:42;;;;;;;42.60;33.08;;;0.70;99.90;;;;;;5093668;28;20024;-85
2023/12/27 07:40:09;;;;;;;24.70;12.27;;;0.60;99.90;;;;;;5101508;28;20034;-84
2023/12/27 07:42:35;;;;;;;22.40;19.65;;;0.60;99.90;;;;;;5114565;28;20051;-84
2023/12/27 07:45:01;;;;;;;19.42;10.60;;;0.70;99.90;;;;;;5096184;28;20067;-84
2023/12/27 07:47:27;;;;;;;26.85;21.17;;;0.60;99.90;;;;;;5113807;28;20286;-85
2023/12/27 07:49:54;;;;;;;16.08;11.15;;;0.70;99.90;;;;;;5111004;28;20027;-88
2023/12/27 07:52:19;;;;;;;19.45;13.35;;;0.80;99.90;;;;;;5103168;28;20046;-85
2023/12/27 07:54:45;;;;;;;25.52;19.88;;;0.70;99.90;;;;;;5094114;28;20031;-86
2023/12/27 07:57:11;;;;;;;24.63;12.77;;;0.70;99.90;;;;;;5093477;28;20024;-84
2023/12/27 07:59:37;;;;;;;20.95;13.05;;;0.80;99.90;;;;;;5107096;28;20039;-86
2023/12/27 08:02:03;;;;;;;17.65;12.00;;;0.80;99.90;;;;;;5099389;28;20388;-87
2023/12/27 08:04:28;;;;;;;21.27;12.25;;;0.90;99.90;;;;;;5113819;28;20058;-86
2023/12/27 08:06:54;;;;;;;24.10;14.00;;;0.90;99.90;;;;;;5081282;28;20179;-86
2023/12/27 08:09:22;;;;;;;26.85;13.57;;;0.90;99.90;;;;;;5104061;28;20039;-85
2023/12/27 08:11:48;;;;;;;19.13;12.75;;;0.90;99.90;;;;;;5093614;28;20035;-85
2023/12/27 08:14:14;;;;;;;20.77;11.40;;;0.90;99.90;;;;;;5094885;28;20023;-86
2023/12/27 08:16:39;;;;;;;17.67;12.55;;;0.90;99.90;;;;;;5109202;28;20081;-86
2023/12/27 08:19:06;;;;;;;25.98;14.65;;;0.90;99.90;;;;;;5105441;28;20035;-86
2023/12/27 08:21:32;;;;;;;36.95;30.52;;;1.00;99.90;;;;;;5116412;28;20383;-86
2023/12/27 08:23:57;;;;;;;59.08;43.75;;;1.10;99.90;;;;;;5101476;28;20084;-85
2023/12/27 08:26:26;;;;;;;69.07;61.70;;;1.00;99.90;;;;;;5107868;28;20080;-85
2023/12/27 08:28:52;;;;;;;29.15;15.05;;;1.00;99.90;;;;;;5085764;28;20036;-85
2023/12/27 08:31:18;;;;;;;24.88;14.85;;;1.10;99.90;;;;;;5119366;28;20104;-86
2023/12/27 08:33:48;;;;;;;27.17;15.60;;;1.10;99.90;;;;;;5099478;28;20028;-86
2023/12/27 08:36:14;;;;;;;22.40;12.73;;;1.10;99.90;;;;;;5100364;28;20400;-86
2023/12/27 08:38:41;;;;;;;21.60;14.18;;;1.10;99.90;;;;;;5104589;28;20031;-86
2023/12/27 08:41:07;;;;;;;24.27;13.43;;;1.10;99.90;;;;;;5095343;28;20008;-85
2023/12/27 08:43:35;;;;;;;34.58;22.38;;;1.10;99.90;;;;;;5096545;28;20040;-85
2023/12/27 08:46:01;;;;;;;28.42;17.60;;;1.20;99.90;;;;;;5110182;28;20063;-84
2023/12/27 08:48:27;;;;;;;31.65;21.73;;;1.20;99.90;;;;;;5095990;28;20507;-85
2023/12/27 08:50:53;;;;;;;27.90;15.32;;;1.10;99.90;;;;;;5097149;28;20038;-86
2023/12/27 08:53:19;;;;;;;24.52;14.15;;;1.10;99.90;;;;;;5100412;28;20019;-85
2023/12/27 08:55:44;;;;;;;19.80;11.90;;;1.10;99.90;;;;;;5099072;28;20016;-86
2023/12/27 08:58:12;;;;;;;19.33;11.65;;;1.20;99.90;;;;;;5117414;28;20012;-86
2023/12/27 09:00:39;;;;;;;20.25;12.25;;;1.10;99.90;;;;;;5110041;28;20054;-85
2023/12/27 09:03:05;;;;;;;23.80;13.48;;;1.20;99.90;;;;;;5098414;28;20073;-85
2023/12/27 09:05:31;;;;;;;23.50;14.93;;;1.10;99.90;;;;;;5112708;28;20431;-87
2023/12/27 09:07:57;;;;;;;19.55;12.48;;;1.20;99.90;;;;;;5094155;28;20028;-85
2023/12/27 09:10:23;;;;;;;20.55;12.18;;;1.30;99.90;;;;;;5094506;28;20027;-85
2023/12/27 09:12:49;;;;;;;19.25;12.20;;;1.40;99.90;;;;;;5109016;28;20020;-85
2023/12/27 09:15:15;;;;;;;15.15;10.50;;;1.40;99.90;;;;;;5097742;28;20024;-84
2023/12/27 09:17:41;;;;;;;18.50;10.45;;;1.40;99.90;;;;;;5095201;28;20012;-86
2023/12/27 09:20:07;;;;;;;9.90;6.22;;;1.50;99.80;;;;;;5081602;28;20022;-84
2023/12/27 09:22:36;;;;;;;23.15;10.07;;;1.40;99.50;;;;;;5080945;28;20031;-84
2023/12/27 09:25:03;;;;;;;9.27;5.82;;;1.50;99.20;;;;;;5099768;28;20103;-83
2023/12/27 09:27:30;;;;;;;8.27;5.23;;;1.50;98.90;;;;;;5092248;28;20043;-84
2023/12/27 09:29:55;;;;;;;7.60;6.30;;;1.40;98.70;;;;;;5103485;28;20114;-84
2023/12/27 09:32:21;;;;;;;14.13;5.90;;;1.40;98.40;;;;;;5096922;28;20052;-84
2023/12/27 09:34:47;;;;;;;10.70;6.28;;;1.40;98.30;;;;;;5104742;28;20020;-85
2023/12/27 09:37:13;;;;;;;13.65;7.90;;;1.30;98.20;;;;;;5104127;28;20025;-85
2023/12/27 09:39:39;;;;;;;9.93;6.55;;;1.20;98.20;;;;;;5093187;28;20087;-85
2023/12/27 09:42:05;;;;;;;12.93;7.60;;;1.20;98.40;;;;;;5097523;28;20539;-84
2023/12/27 09:44:33;;;;;;;14.25;7.15;;;1.20;98.50;;;;;;5116634;28;20507;-84
2023/12/27 09:47:02;;;;;;;10.88;7.50;;;1.20;98.50;;;;;;5099733;28;20012;-85
2023/12/27 09:49:29;;;;;;;11.38;7.53;;;1.10;98.60;;;;;;5100502;28;20032;-84
2023/12/27 09:51:57;;;;;;;;;;;1.10;98.40;;;;;;5120260;28;20106;-85
2023/12/27 09:54:23;;;;;;;10.55;4.53;;;1.10;98.10;;;;;;5110676;28;19932;-84
2023/12/27 09:56:50;;;;;;;7.75;5.35;;;1.00;97.80;;;;;;5110347;28;20125;-84
2023/12/27 09:59:26;;;;;;;7.67;4.90;;;0.90;98.00;;;;;;5105168;28;20028;-84
2023/12/27 10:02:01;;;;;;;10.20;5.22;;;1.00;98.20;;;;;;5096386;28;20027;-86
2023/12/27 10:04:48;;;;;;;7.88;5.63;;;1.10;98.30;;;;;;5116819;28;20019;-84
2023/12/27 10:07:14;;;;;;;8.00;3.97;;;1.10;98.10;;;;;;5109942;28;20080;-88
2023/12/27 10:09:41;;;;;;;6.63;4.27;;;1.20;97.80;;;;;;5096185;28;20028;-85
2023/12/27 10:12:10;;;;;;;8.05;5.75;;;1.20;97.50;;;;;;5095985;28;20024;-83
2023/12/27 10:14:37;;;;;;;5.55;3.65;;;1.20;97.60;;;;;;5103044;28;20024;-87
2023/12/27 10:17:04;;;;;;;6.47;4.47;;;1.40;97.50;;;;;;5103488;28;20128;-85
2023/12/27 10:19:45;;;;;;;6.05;4.25;;;1.40;97.40;;;;;;5096351;28;20077;-85
2023/12/27 10:22:12;;;;;;;6.07;4.07;;;1.40;97.10;;;;;;5099817;28;20098;-84
2023/12/27 10:24:39;;;;;;;7.22;4.40;;;1.40;97.00;;;;;;5123083;28;20384;-85
2023/12/27 10:27:06;;;;;;;7.47;4.47;;;1.40;97.10;;;;;;5108755;28;20054;-84
2023/12/27 10:29:32;;;;;;;;;;;1.50;97.20;;;;;;5108506;28;20092;-82
2023/12/27 10:32:00;;;;;;;9.55;4.72;;;1.50;97.00;;;;;;5076878;28;19936;-86
2023/12/27 10:34:29;;;;;;;9.05;5.03;;;1.40;96.90;;;;;;5101434;28;20042;-87
2023/12/27 10:36:56;;;;;;;9.02;5.88;;;1.40;96.80;;;;;;5110978;28;20019;-84
2023/12/27 10:39:23;;;;;;;8.60;5.45;;;1.30;96.90;;;;;;5099807;28;20034;-85
2023/12/27 10:41:52;;;;;;;9.88;6.05;;;1.30;97.00;;;;;;5094955;28;20016;-83
2023/12/27 10:44:18;;;;;;;7.00;5.78;;;1.30;97.00;;;;;;5108893;28;20055;-85
2023/12/27 10:46:48;;;;;;;8.88;6.07;;;1.30;97.10;;;;;;5096728;28;20433;-84
2023/12/27 10:49:15;;;;;;;10.93;6.20;;;1.30;97.20;;;;;;5096626;28;20386;-84
2023/12/27 10:51:42;;;;;;;11.57;6.38;;;1.30;97.20;;;;;;5095477;28;20511;-82
2023/12/27 10:54:12;;;;;;;10.80;7.18;;;1.30;97.40;;;;;;5105536;28;20389;-85
2023/12/27 10:56:39;;;;;;;7.07;5.97;;;1.30;97.40;;;;;;5078649;28;20071;-84
2023/12/27 10:59:06;;;;;;;12.05;6.80;;;1.40;97.60;;;;;;5105532;28;20031;-85
2023/12/27 11:01:38;;;;;;;10.38;7.40;;;1.40;97.70;;;;;;5094988;28;20401;-84
2023/12/27 11:04:09;;;;;;;14.38;7.70;;;1.40;97.70;;;;;;5106825;28;20448;-84
2023/12/27 11:06:37;;;;;;;10.65;6.75;;;1.50;97.80;;;;;;5076311;28;20024;-84
2023/12/27 11:09:07;;;;;;;13.18;8.43;;;1.50;97.70;;;;;;5107308;28;20346;-85
2023/12/27 11:11:40;;;;;;;13.82;7.80;;;1.60;97.60;;;;;;5094168;28;20024;-83
2023/12/27 11:14:13;;;;;;;12.77;8.38;;;1.50;97.50;;;;;;5100406;28;20396;-84
2023/12/27 11:16:40;;;;;;;25.83;19.95;;;1.50;97.50;;;;;;5079877;28;20081;-84
2023/12/27 11:19:07;;;;;;;16.17;10.05;;;1.50;97.70;;;;;;5100080;28;20030;-85
2023/12/27 11:21:34;;;;;;;11.07;8.57;;;1.50;97.70;;;;;;5096320;28;20122;-84
2023/12/27 11:24:03;;;;;;;10.77;7.97;;;1.40;97.60;;;;;;5095510;28;20028;-83
2023/12/27 11:26:33;;;;;;;12.80;8.85;;;1.40;97.60;;;;;;5094164;28;20036;-86
2023/12/27 11:29:00;;;;;;;22.98;14.55;;;1.40;97.70;;;;;;5097229;28;20057;-83
2023/12/27 11:31:26;;;;;;;10.65;6.97;;;1.40;97.80;;;;;;5105086;28;20026;-84
2023/12/27 11:33:52;;;;;;;18.63;7.13;;;1.40;97.80;;;;;;5095651;28;20035;-84
2023/12/27 11:36:20;;;;;;;13.73;8.05;;;1.30;97.40;;;;;;5101466;28;20031;-85
2023/12/27 11:38:46;;;;;;;14.75;9.05;;;1.30;97.40;;;;;;5098526;28;20513;-84
2023/12/27 11:41:12;;;;;;;20.73;13.88;;;1.30;97.70;;;;;;5103097;28;20373;-84
2023/12/27 11:43:53;;;;;;;29.23;14.90;;;1.20;98.00;;;;;;5115130;28;20027;-84
2023/12/27 11:46:27;;;;;;;24.83;15.75;;;1.30;98.50;;;;;;5099535;28;20032;-85
2023/12/27 11:48:54;;;;;;;21.17;13.30;;;1.30;98.80;;;;;;5114311;28;20447;-84
2023/12/27 11:51:36;;;;;;;19.55;12.40;;;1.30;99.00;;;;;;5097655;28;20519;-84
2023/12/27 11:54:07;;;;;;;20.48;12.95;;;1.20;99.00;;;;;;5093607;28;20495;-83
2023/12/27 11:56:35;;;;;;;20.88;12.40;;;1.10;99.00;;;;;;5089822;28;20109;-83
2023/12/27 11:59:03;;;;;;;25.38;15.07;;;1.00;98.90;;;;;;5101915;28;20024;-83
2023/12/27 12:01:36;;;;;;;22.77;15.27;;;1.00;98.90;;;;;;5111098;28;20079;-82
2023/12/27 12:04:26;;;;;;;20.40;16.40;;;0.90;99.00;;;;;;5103895;28;20076;-82
2023/12/27 12:06:55;;;;;;;10.05;6.75;;;0.90;98.90;;;;;;5115991;28;20038;-82
2023/12/27 12:09:37;;;;;;;12.32;8.60;;;0.90;97.70;;;;;;5079907;28;20036;-82
2023/12/27 12:12:24;;;;;;;12.23;7.90;;;0.80;97.80;;;;;;5112505;28;20023;-83
2023/12/27 12:14:54;;;;;;;11.38;7.93;;;0.90;97.70;;;;;;5102981;28;20092;-83
2023/12/27 12:17:21;;;;;;;13.35;10.13;;;0.90;97.30;;;;;;5096026;28;20091;-83
2023/12/27 12:19:50;;;;;;;10.27;7.18;;;0.90;97.00;;;;;;5096657;28;20055;-83
2023/12/27 12:22:17;;;;;;;11.43;7.43;;;0.90;96.90;;;;;;5097759;28;20044;-83
2023/12/27 12:24:44;;;;;;;7.05;4.32;;;0.90;96.70;;;;;;5104648;28;20439;-83
2023/12/27 12:27:14;;;;;;;6.68;3.58;;;0.70;96.10;;;;;;5092582;28;20030;-82
2023/12/27 12:29:40;;;;;;;6.82;4.47;;;0.60;96.00;;;;;;5082782;28;20040;-83
2023/12/27 12:32:06;;;;;;;6.68;4.38;;;0.60;95.80;;;;;;5112171;28;20023;-84
2023/12/27 12:34:32;;;;;;;7.32;4.38;;;0.60;95.90;;;;;;5099461;28;20023;-83
2023/12/27 12:37:01;;;;;;;7.45;5.55;;;0.50;95.90;;;;;;5113186;28;20034;-82
2023/12/27 12:39:30;;;;;;;6.43;3.85;;;0.40;96.00;;;;;;5097590;28;20108;-82
2023/12/27 12:41:56;;;;;;;7.53;5.22;;;0.30;95.90;;;;;;5112012;28;20562;-83